Terminal Aerodrome Forecast
Issued by NWS Quad Cities IA IL

Home | Current Version | Previous Version | Text Only | Print | Product List | Glossary On
Versions: 1 2 3 4 5 6 7 8 9 10 11 12 13 14 15
000
FTUS43 KDVN 060600 AAA
TAFDBQ
TAF AMD
KDBQ 060600Z 0606/0706 17010KT 5SM BR SKC
     FM060800 15007KT 4SM BR SCT150
     FM061500 18013KT P6SM VCSH SCT040 SCT120
     FM062000 19012KT P6SM VCSH BKN045
      TEMPO 0620/0624 4SM -TSRA BR OVC035CB
     FM070000 21009KT 6SM -TSRA BR OVC035CB=

USA.gov is the U.S. government's official web portal to all federal, state and local government web resources and services.